Time;durP1;ratioP1;P1;durP2;ratioP2;P2;SDS_P1;SDS_P2;PMS_P1;PMS_P2;Temp;Humidity;BMP_temperature;BMP_pressure;BME280_temperature;BME280_humidity;BME280_pressure;Samples;Min_cycle;Max_cycle;Signal;HPM_P1;HPM_P2
2021/09/08 00:00:10;;;;;;;;;;;;;;;;;;5038600;28;19905;-76
2021/09/08 00:02:37;;;;;;;;;;;;;;;;;;5043771;28;19916;-75
2021/09/08 00:05:03;;;;;;;;;;;;;;;;;;5035994;28;19933;-73
2021/09/08 00:07:28;;;;;;;;;;;;;;;;;;5058553;28;19931;-73
2021/09/08 00:09:53;;;;;;;;;;;;;;;;;;5047293;28;19905;-74
2021/09/08 00:12:18;;;;;;;;;;;;;;;;;;5036806;28;19925;-73
2021/09/08 00:14:44;;;;;;;;;;;;;;;;;;5043428;28;19905;-73
2021/09/08 00:17:09;;;;;;;;;;;;;;;;;;5042100;28;19928;-76
2021/09/08 00:19:34;;;;;;;;;;;;;;;;;;5067916;28;19905;-76
2021/09/08 00:21:59;;;;;;;;;;;;;;;;;;5046171;28;19905;-76
2021/09/08 00:24:25;;;;;;;;;;;;;;;;;;5040270;28;19985;-75
2021/09/08 00:26:50;;;;;;;;;;;;;;;;;;5044259;28;19906;-75
2021/09/08 00:29:15;;;;;;;;;;;;;;;;;;5036068;28;19925;-76
2021/09/08 00:31:41;;;;;;;;;;;;;;;;;;5041430;28;19905;-75
2021/09/08 00:34:09;;;;;;;;;;;;;;;;;;5059485;28;19928;-76
2021/09/08 00:36:35;;;;;;;;;;;;;;;;;;5036304;28;19902;-75
2021/09/08 00:39:01;;;;;;;;;;;;;;;;;;5059135;28;20187;-75
2021/09/08 00:41:26;;;;;;;;;;;;;;;;;;5058511;28;20012;-75
2021/09/08 00:43:51;;;;;;;;;;;;;;;;;;5039210;28;19932;-75
2021/09/08 00:46:17;;;;;;;;;;;;;;;;;;5044348;28;19968;-76
2021/09/08 00:48:46;;;;;;;;;;;;;;;;;;5038278;28;19909;-76
2021/09/08 00:51:12;;;;;;;;;;;;;;;;;;5042683;28;19905;-74
2021/09/08 00:53:38;;;;;;;;;;;;;;;;;;5056315;28;19929;-75
2021/09/08 00:56:06;;;;;;;;;;;;;;;;;;5037731;28;19968;-76
2021/09/08 00:58:32;;;;;;;;;;;;;;;;;;5045798;28;19913;-76
2021/09/08 01:00:57;;;;;;;;;;;;;;;;;;5040570;28;19905;-75
2021/09/08 01:03:25;;;;;;;;;;;;;;;;;;5041908;28;20338;-76
2021/09/08 01:05:51;;;;;;;;;;;;;;;;;;5038488;28;20025;-73
2021/09/08 01:08:16;;;;;;;;;;;;;;;;;;5026942;28;19940;-76
2021/09/08 01:10:44;;;;;;;;;;;;;;;;;;5074914;28;19905;-76
2021/09/08 01:13:10;;;;;;;;;;;;;;;;;;5068562;28;19925;-74
2021/09/08 01:15:35;;;;;;;;;;;;;;;;;;5054535;28;19905;-76
2021/09/08 01:18:00;;;;;;;;;;;;;;;;;;5042574;28;19981;-75
2021/09/08 01:20:26;;;;;;;;;;;;;;;;;;5051524;28;19916;-75
2021/09/08 01:22:51;;;;;;;;;;;;;;;;;;5057360;28;19916;-76
2021/09/08 01:25:17;;;;;;;;;;;;;;;;;;5038941;28;20513;-75
2021/09/08 01:27:42;;;;;;;;;;;;;;;;;;5040806;28;19923;-76
2021/09/08 01:30:07;;;;;;;;;;;;;;;;;;5042898;28;20223;-75
2021/09/08 01:32:32;;;;;;;;;;;;;;;;;;5035263;28;19917;-75
2021/09/08 01:34:58;;;;;;;;;;;;;;;;;;5040290;28;19961;-76
2021/09/08 01:37:23;;;;;;;;;;;;;;;;;;5038161;28;19992;-75
2021/09/08 01:39:48;;;;;;;;;;;;;;;;;;5069241;28;19917;-76
2021/09/08 01:42:13;;;;;;;;;;;;;;;;;;5046192;28;19920;-76
2021/09/08 01:44:38;;;;;;;;;;;;;;;;;;5038118;28;19925;-76
2021/09/08 01:47:04;;;;;;;;;;;;;;;;;;5041368;28;19909;-76
2021/09/08 01:49:29;;;;;;;;;;;;;;;;;;5040364;28;19953;-76
2021/09/08 01:51:54;;;;;;;;;;;;;;;;;;5040904;28;19913;-76
2021/09/08 01:54:20;;;;;;;;;;;;;;;;;;5042448;28;20200;-76
2021/09/08 01:56:45;;;;;;;;;;;;;;;;;;5034811;28;19905;-73
2021/09/08 01:59:10;;;;;;;;;;;;;;;;;;5037915;28;19924;-74
2021/09/08 02:01:36;;;;;;;;;;;;;;;;;;5034740;28;19913;-73
2021/09/08 02:04:01;;;;;;;;;;;;;;;;;;5035638;28;19921;-74
2021/09/08 02:06:26;;;;;;;;;;;;;;;;;;5041330;28;19906;-73
2021/09/08 02:08:51;;;;;;;;;;;;;;;;;;5036811;28;20023;-74
2021/09/08 02:11:17;;;;;;;;;;;;;;;;;;5041279;28;19912;-74
2021/09/08 02:13:42;;;;;;;;;;;;;;;;;;5035162;28;19963;-74
2021/09/08 02:16:07;;;;;;;;;;;;;;;;;;5037814;28;19956;-74
2021/09/08 02:18:33;;;;;;;;;;;;;;;;;;5043753;28;19917;-73
2021/09/08 02:20:58;;;;;;;;;;;;;;;;;;5037257;28;19923;-72
2021/09/08 02:23:23;;;;;;;;;;;;;;;;;;5040648;28;19959;-73
2021/09/08 02:25:48;;;;;;;;;;;;;;;;;;5037198;28;19925;-73
2021/09/08 02:28:20;;;;;;;;;;;;;;;;;;5035459;28;19913;-74
2021/09/08 02:30:45;;;;;;;;;;;;;;;;;;5041179;28;19929;-74
2021/09/08 02:33:10;;;;;;;;;;;;;;;;;;5033730;28;19965;-74
2021/09/08 02:35:35;;;;;;;;;;;;;;;;;;5056467;28;19929;-74
2021/09/08 02:38:01;;;;;;;;;;;;;;;;;;5036085;28;19905;-74
2021/09/08 02:40:26;;;;;;;;;;;;;;;;;;5033771;28;19906;-74
2021/09/08 02:42:51;;;;;;;;;;;;;;;;;;5041801;28;19905;-74
2021/09/08 02:45:16;;;;;;;;;;;;;;;;;;5038677;28;19923;-74
2021/09/08 02:47:41;;;;;;;;;;;;;;;;;;5044541;28;19913;-74
2021/09/08 02:50:07;;;;;;;;;;;;;;;;;;5041175;28;19989;-74
2021/09/08 02:52:32;;;;;;;;;;;;;;;;;;5045727;28;19913;-72
2021/09/08 02:54:57;;;;;;;;;;;;;;;;;;5045978;28;19921;-74
2021/09/08 02:57:23;;;;;;;;;;;;;;;;;;5040315;28;19980;-73
2021/09/08 02:59:48;;;;;;;;;;;;;;;;;;5042524;28;19928;-74
2021/09/08 03:02:13;;;;;;;;;;;;;;;;;;5072885;28;19931;-73
2021/09/08 03:04:38;;;;;;;;;;;;;;;;;;5042044;28;19913;-74
2021/09/08 03:07:03;;;;;;;;;;;;;;;;;;5063160;28;19933;-74
2021/09/08 03:09:29;;;;;;;;;;;;;;;;;;5039510;28;19929;-74
2021/09/08 03:11:54;;;;;;;;;;;;;;;;;;5044988;28;19917;-74
2021/09/08 03:14:19;;;;;;;;;;;;;;;;;;5056243;28;19925;-76
2021/09/08 03:16:45;;;;;;;;;;;;;;;;;;5040302;28;19913;-72
2021/09/08 03:19:11;;;;;;;;;;;;;;;;;;5075243;28;19912;-74
2021/09/08 03:21:36;;;;;;;;;;;;;;;;;;5045045;28;20003;-74
2021/09/08 03:24:01;;;;;;;;;;;;;;;;;;5048020;28;19920;-74
2021/09/08 03:26:27;;;;;;;;;;;;;;;;;;5040654;28;19901;-75
2021/09/08 03:28:52;;;;;;;;;;;;;;;;;;5045747;28;19936;-75
2021/09/08 03:31:17;;;;;;;;;;;;;;;;;;5047642;28;20007;-74
2021/09/08 03:33:42;;;;;;;;;;;;;;;;;;5036618;28;19920;-74
2021/09/08 03:36:07;;;;;;;;;;;;;;;;;;5046485;28;19918;-75
2021/09/08 03:38:35;;;;;;;;;;;;;;;;;;5044307;28;19905;-75
2021/09/08 03:41:00;;;;;;;;;;;;;;;;;;5038337;28;19905;-74
2021/09/08 03:43:26;;;;;;;;;;;;;;;;;;5077732;28;19921;-75
2021/09/08 03:45:51;;;;;;;;;;;;;;;;;;5043597;28;19980;-74
2021/09/08 03:48:16;;;;;;;;;;;;;;;;;;5050918;28;20002;-76
2021/09/08 03:50:41;;;;;;;;;;;;;;;;;;5055586;28;19905;-74
2021/09/08 03:53:07;;;;;;;;;;;;;;;;;;5038825;28;19916;-74
2021/09/08 03:55:32;;;;;;;;;;;;;;;;;;5047238;28;19927;-74
2021/09/08 03:57:57;;;;;;;;;;;;;;;;;;5036598;28;19973;-74
2021/09/08 04:00:22;;;;;;;;;;;;;;;;;;5043088;28;19989;-73
2021/09/08 04:02:48;;;;;;;;;;;;;;;;;;5055305;28;19976;-74
2021/09/08 04:05:13;;;;;;;;;;;;;;;;;;5039128;28;19917;-74
2021/09/08 04:07:38;;;;;;;;;;;;;;;;;;5044696;28;19906;-74
2021/09/08 04:10:04;;;;;;;;;;;;;;;;;;5037124;28;19906;-74
2021/09/08 04:12:29;;;;;;;;;;;;;;;;;;5074375;28;19928;-74
2021/09/08 04:14:54;;;;;;;;;;;;;;;;;;5038202;28;19901;-75
2021/09/08 04:17:19;;;;;;;;;;;;;;;;;;5053791;28;20017;-74
2021/09/08 04:19:45;;;;;;;;;;;;;;;;;;5042070;28;20108;-74
2021/09/08 04:22:10;;;;;;;;;;;;;;;;;;5038925;28;19909;-74
2021/09/08 04:24:35;;;;;;;;;;;;;;;;;;5045937;28;19953;-71
2021/09/08 04:27:00;;;;;;;;;;;;;;;;;;5036847;28;19971;-73
2021/09/08 04:29:25;;;;;;;;;;;;;;;;;;5040000;28;19905;-74
2021/09/08 04:31:51;;;;;;;;;;;;;;;;;;5045360;28;19917;-74
2021/09/08 04:34:16;;;;;;;;;;;;;;;;;;5071775;28;19901;-74
2021/09/08 04:36:41;;;;;;;;;;;;;;;;;;5043975;28;19909;-74
2021/09/08 04:39:06;;;;;;;;;;;;;;;;;;5034806;28;20046;-75
2021/09/08 04:41:32;;;;;;;;;;;;;;;;;;5038653;28;19906;-74
2021/09/08 04:43:57;;;;;;;;;;;;;;;;;;5041578;28;19921;-74
2021/09/08 04:46:22;;;;;;;;;;;;;;;;;;5037777;28;19913;-74
2021/09/08 04:48:47;;;;;;;;;;;;;;;;;;5043830;28;19980;-72
2021/09/08 04:51:13;;;;;;;;;;;;;;;;;;5041886;28;19913;-73
2021/09/08 04:53:38;;;;;;;;;;;;;;;;;;5039186;28;19936;-69
2021/09/08 04:56:03;;;;;;;;;;;;;;;;;;5042446;28;19929;-69
2021/09/08 04:58:28;;;;;;;;;;;;;;;;;;5038431;28;19905;-69
2021/09/08 05:00:54;;;;;;;;;;;;;;;;;;5043821;28;19939;-69
2021/09/08 05:03:19;;;;;;;;;;;;;;;;;;5054856;28;20053;-69
2021/09/08 05:05:44;;;;;;;;;;;;;;;;;;5067368;28;19924;-70
2021/09/08 05:08:09;;;;;;;;;;;;;;;;;;5040265;28;19921;-71
2021/09/08 05:10:35;;;;;;;;;;;;;;;;;;5034353;28;19920;-68
2021/09/08 05:13:00;;;;;;;;;;;;;;;;;;5044381;28;19917;-74
2021/09/08 05:15:25;;;;;;;;;;;;;;;;;;5055542;28;19940;-73
2021/09/08 05:17:50;;;;;;;;;;;;;;;;;;5069757;28;19933;-73
2021/09/08 05:20:16;;;;;;;;;;;;;;;;;;5072631;28;19905;-71
2021/09/08 05:22:41;;;;;;;;;;;;;;;;;;5072582;28;19987;-73
2021/09/08 05:25:06;;;;;;;;;;;;;;;;;;5042553;28;19990;-74
2021/09/08 05:27:31;;;;;;;;;;;;;;;;;;5070450;28;20063;-72
2021/09/08 05:29:56;;;;;;;;;;;;;;;;;;5036114;28;20487;-71
2021/09/08 05:32:22;;;;;;;;;;;;;;;;;;5046990;28;20141;-73
2021/09/08 05:34:47;;;;;;;;;;;;;;;;;;5030359;28;20122;-69
2021/09/08 05:37:12;;;;;;;;;;;;;;;;;;5042732;28;19913;-69
2021/09/08 05:39:37;;;;;;;;;;;;;;;;;;5038053;28;19913;-70
2021/09/08 05:42:03;;;;;;;;;;;;;;;;;;5036485;28;20512;-67
2021/09/08 05:44:28;;;;;;;;;;;;;;;;;;5074885;28;19933;-68
2021/09/08 05:46:53;;;;;;;;;;;;;;;;;;5035862;28;19952;-69
2021/09/08 05:49:18;;;;;;;;;;;;;;;;;;5038561;28;19915;-70
2021/09/08 05:51:43;;;;;;;;;;;;;;;;;;5039966;28;19912;-70
2021/09/08 05:54:09;;;;;;;;;;;;;;;;;;5034797;28;19924;-69
2021/09/08 05:56:34;;;;;;;;;;;;;;;;;;5044530;28;19905;-70
2021/09/08 05:58:59;;;;;;;;;;;;;;;;;;5036335;28;19916;-70
2021/09/08 06:01:27;;;;;;;;;;;;;;;;;;5039407;28;19905;-68
2021/09/08 06:03:52;;;;;;;;;;;;;;;;;;5035710;28;19956;-70
2021/09/08 06:06:17;;;;;;;;;;;;;;;;;;5034377;28;19967;-70
2021/09/08 06:08:42;;;;;;;;;;;;;;;;;;5044657;28;19923;-71
2021/09/08 06:11:07;;;;;;;;;;;;;;;;;;5033480;28;19913;-71
2021/09/08 06:13:33;;;;;;;;;;;;;;;;;;5040423;28;19905;-70
2021/09/08 06:15:58;;;;;;;;;;;;;;;;;;5035202;28;19916;-69
2021/09/08 06:18:23;;;;;;;;;;;;;;;;;;5064726;28;20030;-70
2021/09/08 06:20:48;;;;;;;;;;;;;;;;;;5040370;28;19913;-70
2021/09/08 06:23:14;;;;;;;;;;;;;;;;;;5056916;28;19917;-69
2021/09/08 06:25:39;;;;;;;;;;;;;;;;;;5046013;28;20202;-67
2021/09/08 06:28:04;;;;;;;;;;;;;;;;;;5035923;28;19925;-69
2021/09/08 06:30:29;;;;;;;;;;;;;;;;;;5034526;28;20351;-69
2021/09/08 06:32:55;;;;;;;;;;;;;;;;;;5042700;28;19925;-68
2021/09/08 06:35:20;;;;;;;;;;;;;;;;;;5033503;28;19944;-69
2021/09/08 06:37:45;;;;;;;;;;;;;;;;;;5071420;28;20147;-70
2021/09/08 06:40:10;;;;;;;;;;;;;;;;;;5035969;28;19948;-71
2021/09/08 06:42:36;;;;;;;;;;;;;;;;;;5033422;28;19924;-71
2021/09/08 06:45:01;;;;;;;;;;;;;;;;;;5040480;28;19928;-71
2021/09/08 06:47:26;;;;;;;;;;;;;;;;;;5032270;28;19912;-72
2021/09/08 06:49:51;;;;;;;;;;;;;;;;;;5036241;28;19939;-67
2021/09/08 06:52:16;;;;;;;;;;;;;;;;;;5036374;28;20024;-70
2021/09/08 06:54:42;;;;;;;;;;;;;;;;;;5032340;28;19928;-69
2021/09/08 06:57:07;;;;;;;;;;;;;;;;;;5039278;28;20088;-69
2021/09/08 06:59:32;;;;;;;;;;;;;;;;;;5038748;28;19976;-71
2021/09/08 07:01:58;;;;;;;;;;;;;;;;;;5044905;28;19918;-69
2021/09/08 07:04:24;;;;;;;;;;;;;;;;;;5033388;28;19952;-70
2021/09/08 07:06:49;;;;;;;;;;;;;;;;;;5033185;28;20331;-70
2021/09/08 07:09:14;;;;;;;;;;;;;;;;;;5040763;28;19913;-70
2021/09/08 07:11:39;;;;;;;;;;;;;;;;;;5034007;28;19949;-70
2021/09/08 07:14:05;;;;;;;;;;;;;;;;;;5042248;28;19932;-72
2021/09/08 07:16:30;;;;;;;;;;;;;;;;;;5033968;28;19932;-72
2021/09/08 07:18:55;;;;;;;;;;;;;;;;;;5033759;28;20175;-71
2021/09/08 07:21:20;;;;;;;;;;;;;;;;;;5039266;28;19909;-73
2021/09/08 07:23:46;;;;;;;;;;;;;;;;;;5030970;28;19933;-71
2021/09/08 07:26:11;;;;;;;;;;;;;;;;;;5041540;28;19905;-72
2021/09/08 07:28:36;;;;;;;;;;;;;;;;;;5028348;28;19905;-71
2021/09/08 07:31:01;;;;;;;;;;;;;;;;;;5033633;28;20205;-73
2021/09/08 07:33:27;;;;;;;;;;;;;;;;;;5042213;28;19906;-75
2021/09/08 07:35:52;;;;;;;;;;;;;;;;;;5030199;28;19945;-73
2021/09/08 07:38:17;;;;;;;;;;;;;;;;;;5040340;28;19921;-74
2021/09/08 07:40:42;;;;;;;;;;;;;;;;;;5068276;28;19985;-75
2021/09/08 07:43:07;;;;;;;;;;;;;;;;;;5037602;28;20231;-74
2021/09/08 07:45:33;;;;;;;;;;;;;;;;;;5046169;28;19963;-74
2021/09/08 07:47:58;;;;;;;;;;;;;;;;;;5035543;28;19905;-74
2021/09/08 07:50:23;;;;;;;;;;;;;;;;;;5043734;28;19909;-74
2021/09/08 07:52:48;;;;;;;;;;;;;;;;;;5037021;28;19944;-74
2021/09/08 07:55:14;;;;;;;;;;;;;;;;;;5033226;28;19914;-74
2021/09/08 07:57:39;;;;;;;;;;;;;;;;;;5043384;28;19913;-74
2021/09/08 08:00:07;;;;;;;;;;;;;;;;;;5037728;28;19983;-73
2021/09/08 08:02:32;;;;;;;;;;;;;;;;;;5046031;28;19905;-74
2021/09/08 08:04:58;;;;;;;;;;;;;;;;;;5041369;28;19940;-74
2021/09/08 08:07:23;;;;;;;;;;;;;;;;;;5035763;28;19913;-73
2021/09/08 08:09:48;;;;;;;;;;;;;;;;;;5041288;28;19905;-74
2021/09/08 08:12:13;;;;;;;;;;;;;;;;;;5041462;28;19922;-74
2021/09/08 08:14:39;;;;;;;;;;;;;;;;;;5074815;28;19914;-75
2021/09/08 08:17:04;;;;;;;;;;;;;;;;;;5040913;28;19927;-71
2021/09/08 08:19:29;;;;;;;;;;;;;;;;;;5036591;28;19921;-74
2021/09/08 08:21:54;;;;;;;;;;;;;;;;;;5046506;28;19923;-75
2021/09/08 08:24:20;;;;;;;;;;;;;;;;;;5035974;28;19930;-73
2021/09/08 08:26:45;;;;;;;;;;;;;;;;;;5076693;28;19944;-71
2021/09/08 08:29:10;;;;;;;;;;;;;;;;;;5033942;28;19924;-73
2021/09/08 08:31:35;;;;;;;;;;;;;;;;;;5038783;28;19932;-73
2021/09/08 08:34:00;;;;;;;;;;;;;;;;;;5039716;28;19917;-72
2021/09/08 08:36:26;;;;;;;;;;;;;;;;;;5038269;28;19906;-72
2021/09/08 08:38:51;;;;;;;;;;;;;;;;;;5040853;28;19916;-73
2021/09/08 08:41:16;;;;;;;;;;;;;;;;;;5069804;28;19913;-70
2021/09/08 08:43:41;;;;;;;;;;;;;;;;;;5036506;28;19921;-72
2021/09/08 08:46:07;;;;;;;;;;;;;;;;;;5044004;28;19914;-73
2021/09/08 08:48:32;;;;;;;;;;;;;;;;;;5039103;28;19937;-74
2021/09/08 08:50:57;;;;;;;;;;;;;;;;;;5045853;28;19964;-74
2021/09/08 08:53:22;;;;;;;;;;;;;;;;;;5035079;28;19905;-73
2021/09/08 08:55:47;;;;;;;;;;;;;;;;;;5036649;28;19918;-75
2021/09/08 08:58:13;;;;;;;;;;;;;;;;;;5044492;28;19910;-74
2021/09/08 09:00:40;;;;;;;;;;;;;;;;;;5037943;28;19964;-74
2021/09/08 09:03:05;;;;;;;;;;;;;;;;;;5045177;28;19920;-73
2021/09/08 09:05:30;;;;;;;;;;;;;;;;;;5037278;28;19984;-76
2021/09/08 09:07:58;;;;;;;;;;;;;;;;;;5039100;28;19914;-74
2021/09/08 09:10:23;;;;;;;;;;;;;;;;;;5040879;28;19938;-74
2021/09/08 09:12:48;;;;;;;;;;;;;;;;;;5034779;28;19905;-73
2021/09/08 09:15:13;;;;;;;;;;;;;;;;;;5044323;28;19917;-73
2021/09/08 09:17:39;;;;;;;;;;;;;;;;;;5039801;28;19911;-73
2021/09/08 09:20:04;;;;;;;;;;;;;;;;;;5039039;28;19925;-73
2021/09/08 09:22:31;;;;;;;;;;;;;;;;;;5043768;28;19918;-76
2021/09/08 09:24:57;;;;;;;;;;;;;;;;;;5037098;28;19977;-74
2021/09/08 09:27:23;;;;;;;;;;;;;;;;;;5063296;28;19924;-75
2021/09/08 09:29:48;;;;;;;;;;;;;;;;;;5037502;28;19940;-73
2021/09/08 09:32:14;;;;;;;;;;;;;;;;;;5036448;28;19905;-70
2021/09/08 09:34:40;;;;;;;;;;;;;;;;;;5043677;28;20024;-71
2021/09/08 09:37:05;;;;;;;;;;;;;;;;;;5035224;28;19921;-73
2021/09/08 09:39:31;;;;;;;;;;;;;;;;;;5074073;28;19932;-74
2021/09/08 09:41:56;;;;;;;;;;;;;;;;;;5037378;28;19913;-73
2021/09/08 09:44:22;;;;;;;;;;;;;;;;;;5035133;28;20143;-75
2021/09/08 09:46:47;;;;;;;;;;;;;;;;;;5039212;28;19944;-73
2021/09/08 09:49:13;;;;;;;;;;;;;;;;;;5038418;28;19909;-74
2021/09/08 09:51:38;;;;;;;;;;;;;;;;;;5042495;28;19921;-73
2021/09/08 09:54:03;;;;;;;;;;;;;;;;;;5036484;28;19969;-69
2021/09/08 09:56:28;;;;;;;;;;;;;;;;;;5037717;28;19921;-75
2021/09/08 09:58:53;;;;;;;;;;;;;;;;;;5038822;28;19967;-73
2021/09/08 10:01:19;;;;;;;;;;;;;;;;;;5031932;28;19908;-73
2021/09/08 10:03:45;;;;;;;;;;;;;;;;;;5071897;28;20203;-75
2021/09/08 10:06:10;;;;;;;;;;;;;;;;;;5041369;28;19918;-75
2021/09/08 10:08:35;;;;;;;;;;;;;;;;;;5034820;28;19906;-76
2021/09/08 10:11:03;;;;;;;;;;;;;;;;;;5041702;28;19924;-75
2021/09/08 10:13:28;;;;;;;;;;;;;;;;;;5067774;28;19921;-71
2021/09/08 10:15:53;;;;;;;;;;;;;;;;;;5039600;28;19912;-73
2021/09/08 10:18:19;;;;;;;;;;;;;;;;;;5034731;28;19913;-73
2021/09/08 10:20:44;;;;;;;;;;;;;;;;;;5035639;28;19980;-73
2021/09/08 10:23:09;;;;;;;;;;;;;;;;;;5044175;28;19940;-72
2021/09/08 10:25:35;;;;;;;;;;;;;;;;;;5037453;28;19932;-73
2021/09/08 10:28:00;;;;;;;;;;;;;;;;;;5042897;28;19949;-73
2021/09/08 10:30:25;;;;;;;;;;;;;;;;;;5042127;28;19968;-73
2021/09/08 10:32:51;;;;;;;;;;;;;;;;;;5037396;28;19928;-70
2021/09/08 10:35:16;;;;;;;;;;;;;;;;;;5040758;28;19975;-74
2021/09/08 10:37:41;;;;;;;;;;;;;;;;;;5049676;28;19914;-74
2021/09/08 10:40:06;;;;;;;;;;;;;;;;;;5039956;28;19995;-74
2021/09/08 10:42:32;;;;;;;;;;;;;;;;;;5066867;28;19912;-73
2021/09/08 10:44:59;;;;;;;;;;;;;;;;;;5035886;28;19921;-75
2021/09/08 10:47:24;;;;;;;;;;;;;;;;;;5041110;28;19916;-75
2021/09/08 10:49:50;;;;;;;;;;;;;;;;;;5067954;28;19909;-71
2021/09/08 10:52:15;;;;;;;;;;;;;;;;;;5043182;28;19905;-70
2021/09/08 10:54:42;;;;;;;;;;;;;;;;;;5034279;28;20128;-74
2021/09/08 10:57:07;;;;;;;;;;;;;;;;;;5037729;28;19913;-75
2021/09/08 10:59:32;;;;;;;;;;;;;;;;;;5041012;28;19920;-73
2021/09/08 11:01:57;;;;;;;;;;;;;;;;;;5039834;28;19913;-74
2021/09/08 11:04:24;;;;;;;;;;;;;;;;;;5037454;28;21130;-74
2021/09/08 11:06:50;;;;;;;;;;;;;;;;;;5039378;28;20115;-74
2021/09/08 11:09:15;;;;;;;;;;;;;;;;;;5040384;28;20315;-74
2021/09/08 11:11:40;;;;;;;;;;;;;;;;;;5045053;28;19925;-74
2021/09/08 11:14:05;;;;;;;;;;;;;;;;;;5038860;28;19925;-74
2021/09/08 11:16:31;;;;;;;;;;;;;;;;;;5042100;28;20001;-74
2021/09/08 11:18:56;;;;;;;;;;;;;;;;;;5040941;28;19905;-75
2021/09/08 11:21:21;;;;;;;;;;;;;;;;;;5053383;28;19949;-74
2021/09/08 11:23:47;;;;;;;;;;;;;;;;;;5043091;28;19927;-75
2021/09/08 11:26:12;;;;;;;;;;;;;;;;;;5040270;28;19905;-76
2021/09/08 11:28:38;;;;;;;;;;;;;;;;;;5036504;28;20215;-66
2021/09/08 11:31:03;;;;;;;;;;;;;;;;;;5032592;28;19943;-70
2021/09/08 11:33:28;;;;;;;;;;;;;;;;;;5065399;28;19933;-70
2021/09/08 11:35:55;;;;;;;;;;;;;;;;;;5043781;28;20435;-70
2021/09/08 11:38:22;;;;;;;;;;;;;;;;;;5036518;28;19914;-71
2021/09/08 11:40:47;;;;;;;;;;;;;;;;;;5037985;28;19992;-71
2021/09/08 11:43:13;;;;;;;;;;;;;;;;;;5070791;28;19913;-70
2021/09/08 11:45:38;;;;;;;;;;;;;;;;;;5040755;28;19937;-71
2021/09/08 11:48:03;;;;;;;;;;;;;;;;;;5044932;28;19961;-71
2021/09/08 11:50:29;;;;;;;;;;;;;;;;;;5055169;28;19919;-70
2021/09/08 11:52:54;;;;;;;;;;;;;;;;;;5038898;28;19977;-71
2021/09/08 11:55:19;;;;;;;;;;;;;;;;;;5047088;28;19932;-72
2021/09/08 11:57:44;;;;;;;;;;;;;;;;;;5036774;28;19917;-71
2021/09/08 12:00:10;;;;;;;;;;;;;;;;;;5045007;28;19920;-70
2021/09/08 12:02:35;;;;;;;;;;;;;;;;;;5038715;28;19915;-70
2021/09/08 12:05:00;;;;;;;;;;;;;;;;;;5037508;28;19947;-70
2021/09/08 12:07:25;;;;;;;;;;;;;;;;;;5044683;28;20242;-69
2021/09/08 12:09:50;;;;;;;;;;;;;;;;;;5035466;28;19925;-70
2021/09/08 12:12:18;;;;;;;;;;;;;;;;;;5044189;28;19911;-70
2021/09/08 12:14:43;;;;;;;;;;;;;;;;;;5038540;28;19924;-72
2021/09/08 12:17:09;;;;;;;;;;;;;;;;;;5041083;28;19913;-73
2021/09/08 12:19:34;;;;;;;;;;;;;;;;;;5041700;28;19906;-72
2021/09/08 12:21:59;;;;;;;;;;;;;;;;;;5037946;28;19905;-72
2021/09/08 12:24:25;;;;;;;;;;;;;;;;;;5042533;28;20245;-70
2021/09/08 12:26:50;;;;;;;;;;;;;;;;;;5037190;28;19926;-70
2021/09/08 12:29:15;;;;;;;;;;;;;;;;;;5036199;28;19915;-73
2021/09/08 12:31:40;;;;;;;;;;;;;;;;;;5041609;28;19917;-72
2021/09/08 12:34:06;;;;;;;;;;;;;;;;;;5038883;28;19912;-72
2021/09/08 12:36:31;;;;;;;;;;;;;;;;;;5040802;28;20214;-72
2021/09/08 12:38:56;;;;;;;;;;;;;;;;;;5036031;28;19913;-71
2021/09/08 12:41:21;;;;;;;;;;;;;;;;;;5036205;28;20084;-71
2021/09/08 12:43:47;;;;;;;;;;;;;;;;;;5042627;28;19917;-72
2021/09/08 12:46:12;;;;;;;;;;;;;;;;;;5039675;28;19930;-72
2021/09/08 12:48:37;;;;;;;;;;;;;;;;;;5044495;28;19915;-70
2021/09/08 12:51:02;;;;;;;;;;;;;;;;;;5040319;28;19921;-71
2021/09/08 12:53:28;;;;;;;;;;;;;;;;;;5055475;28;19964;-73
2021/09/08 12:55:53;;;;;;;;;;;;;;;;;;5040912;28;19913;-72
2021/09/08 12:58:18;;;;;;;;;;;;;;;;;;5052380;28;19924;-71
2021/09/08 13:00:43;;;;;;;;;;;;;;;;;;5044785;28;19917;-72
2021/09/08 13:03:09;;;;;;;;;;;;;;;;;;5035726;28;19984;-72
2021/09/08 13:05:34;;;;;;;;;;;;;;;;;;5038722;28;19905;-71
2021/09/08 13:07:59;;;;;;;;;;;;;;;;;;5039312;28;19927;-72
2021/09/08 13:10:24;;;;;;;;;;;;;;;;;;5035907;28;19916;-71
2021/09/08 13:12:49;;;;;;;;;;;;;;;;;;5040103;28;19913;-71
2021/09/08 13:15:15;;;;;;;;;;;;;;;;;;5038580;28;19976;-71
2021/09/08 13:17:40;;;;;;;;;;;;;;;;;;5035162;28;19921;-72
2021/09/08 13:20:05;;;;;;;;;;;;;;;;;;5041321;28;19913;-70
2021/09/08 13:22:30;;;;;;;;;;;;;;;;;;5040990;28;19905;-70
2021/09/08 13:24:56;;;;;;;;;;;;;;;;;;5041009;28;19919;-71
2021/09/08 13:27:24;;;;;;;;;;;;;;;;;;5036070;28;19936;-71
2021/09/08 13:36:08;;;;;;;;;;;;;;;;;;5040603;28;19928;-72
2021/09/08 13:38:34;;;;;;;;;;;;;;;;;;5037147;28;19921;-71
2021/09/08 13:41:02;;;;;;;;;;;;;;;;;;5044882;28;19909;-73
2021/09/08 13:43:27;;;;;;;;;;;;;;;;;;5037499;28;20031;-71
2021/09/08 13:45:52;;;;;;;;;;;;;;;;;;5041859;28;19913;-71
2021/09/08 13:48:20;;;;;;;;;;;;;;;;;;5043915;28;19956;-70
2021/09/08 13:50:46;;;;;;;;;;;;;;;;;;5035739;28;19972;-70
2021/09/08 13:53:11;;;;;;;;;;;;;;;;;;5040357;28;19913;-69
2021/09/08 13:55:36;;;;;;;;;;;;;;;;;;5051238;28;19914;-71
2021/09/08 13:58:03;;;;;;;;;;;;;;;;;;5035876;28;19917;-70
2021/09/08 14:00:28;;;;;;;;;;;;;;;;;;5039314;28;20135;-70
2021/09/08 14:02:54;;;;;;;;;;;;;;;;;;5034914;28;19957;-73
2021/09/08 14:05:19;;;;;;;;;;;;;;;;;;5042062;28;19905;-69
2021/09/08 14:07:44;;;;;;;;;;;;;;;;;;5035926;28;19925;-71
2021/09/08 14:10:09;;;;;;;;;;;;;;;;;;5035013;28;19912;-70
2021/09/08 14:12:35;;;;;;;;;;;;;;;;;;5040134;28;19924;-70
2021/09/08 14:15:00;;;;;;;;;;;;;;;;;;5035510;28;19922;-69
2021/09/08 14:17:26;;;;;;;;;;;;;;;;;;5041026;28;20107;-69
2021/09/08 14:19:52;;;;;;;;;;;;;;;;;;5036419;28;19925;-70
2021/09/08 14:22:17;;;;;;;;;;;;;;;;;;5032779;28;19905;-70
2021/09/08 14:24:44;;;;;;;;;;;;;;;;;;5037733;28;19906;-71
2021/09/08 14:27:09;;;;;;;;;;;;;;;;;;5035552;28;19913;-71
2021/09/08 14:29:37;;;;;;;;;;;;;;;;;;5042492;28;20003;-70
2021/09/08 14:32:03;;;;;;;;;;;;;;;;;;5034345;28;19977;-71
2021/09/08 14:34:28;;;;;;;;;;;;;;;;;;5052019;28;19938;-73
2021/09/08 14:36:54;;;;;;;;;;;;;;;;;;5071916;28;19913;-68
2021/09/08 14:39:21;;;;;;;;;;;;;;;;;;5037963;28;19935;-70
2021/09/08 14:41:46;;;;;;;;;;;;;;;;;;5041097;28;19902;-70
2021/09/08 14:44:12;;;;;;;;;;;;;;;;;;5071475;28;19992;-70
2021/09/08 14:46:39;;;;;;;;;;;;;;;;;;5037789;28;19906;-70
2021/09/08 14:49:05;;;;;;;;;;;;;;;;;;5065035;28;19917;-68
2021/09/08 14:51:30;;;;;;;;;;;;;;;;;;5037774;28;19920;-69
2021/09/08 14:53:55;;;;;;;;;;;;;;;;;;5043250;28;19916;-71
2021/09/08 14:56:21;;;;;;;;;;;;;;;;;;5039690;28;19921;-71
2021/09/08 14:58:46;;;;;;;;;;;;;;;;;;5054105;28;19948;-70
2021/09/08 15:01:11;;;;;;;;;;;;;;;;;;5044777;28;19977;-69
2021/09/08 15:03:36;;;;;;;;;;;;;;;;;;5042245;28;20074;-70
2021/09/08 15:06:01;;;;;;;;;;;;;;;;;;5044395;28;19925;-70
2021/09/08 15:08:27;;;;;;;;;;;;;;;;;;5038647;28;19912;-70
2021/09/08 15:10:52;;;;;;;;;;;;;;;;;;5039947;28;19916;-67
2021/09/08 15:13:17;;;;;;;;;;;;;;;;;;5045216;28;19912;-69
2021/09/08 15:15:43;;;;;;;;;;;;;;;;;;5068760;28;19998;-70
2021/09/08 15:18:08;;;;;;;;;;;;;;;;;;5046026;28;19976;-71
2021/09/08 15:20:33;;;;;;;;;;;;;;;;;;5037848;28;19933;-70
2021/09/08 15:22:58;;;;;;;;;;;;;;;;;;5036828;28;19996;-70
2021/09/08 15:25:24;;;;;;;;;;;;;;;;;;5046204;28;19906;-69
2021/09/08 15:27:49;;;;;;;;;;;;;;;;;;5041685;28;19921;-70
2021/09/08 15:30:14;;;;;;;;;;;;;;;;;;5043735;28;19913;-70
2021/09/08 15:32:40;;;;;;;;;;;;;;;;;;5039989;28;19916;-69
2021/09/08 15:35:05;;;;;;;;;;;;;;;;;;5068320;28;20000;-66
2021/09/08 15:37:33;;;;;;;;;;;;;;;;;;5072083;28;19920;-69
2021/09/08 15:39:58;;;;;;;;;;;;;;;;;;5042367;28;19905;-70
2021/09/08 15:42:23;;;;;;;;;;;;;;;;;;5044335;28;19967;-70
2021/09/08 15:44:48;;;;;;;;;;;;;;;;;;5054334;28;20215;-69
2021/09/08 15:47:13;;;;;;;;;;;;;;;;;;5037013;28;19906;-70
2021/09/08 15:49:39;;;;;;;;;;;;;;;;;;5042418;28;19940;-69
2021/09/08 15:52:06;;;;;;;;;;;;;;;;;;5036756;28;19952;-69
2021/09/08 15:54:34;;;;;;;;;;;;;;;;;;5036544;28;19921;-69
2021/09/08 15:56:59;;;;;;;;;;;;;;;;;;5039872;28;19912;-69
2021/09/08 15:59:24;;;;;;;;;;;;;;;;;;5035072;28;19905;-69
2021/09/08 16:01:49;;;;;;;;;;;;;;;;;;5047963;28;19905;-70
2021/09/08 16:04:15;;;;;;;;;;;;;;;;;;5039427;28;20053;-69
2021/09/08 16:06:40;;;;;;;;;;;;;;;;;;5074491;28;19905;-67
2021/09/08 16:09:05;;;;;;;;;;;;;;;;;;5037438;28;19932;-71
2021/09/08 16:11:34;;;;;;;;;;;;;;;;;;5036507;28;19932;-70
2021/09/08 16:13:59;;;;;;;;;;;;;;;;;;5041464;28;20189;-70
2021/09/08 16:16:24;;;;;;;;;;;;;;;;;;5037248;28;19905;-70
2021/09/08 16:18:53;;;;;;;;;;;;;;;;;;5043466;28;19917;-70
2021/09/08 16:21:20;;;;;;;;;;;;;;;;;;5039062;28;19906;-69
2021/09/08 16:23:45;;;;;;;;;;;;;;;;;;5036641;28;19905;-69
2021/09/08 16:26:10;;;;;;;;;;;;;;;;;;5074842;28;19924;-69
2021/09/08 16:28:36;;;;;;;;;;;;;;;;;;5036706;28;19965;-69
2021/09/08 16:31:01;;;;;;;;;;;;;;;;;;5055735;28;19912;-69
2021/09/08 16:33:28;;;;;;;;;;;;;;;;;;5039287;28;19913;-69
2021/09/08 16:35:54;;;;;;;;;;;;;;;;;;5037597;28;19924;-69
2021/09/08 16:38:19;;;;;;;;;;;;;;;;;;5043170;28;19917;-69